KHZX

Isedor Iverson Airport

Mc Gregor, Minnesota, USA
METAR KHZX 231135Z AUTO 31004KT 10SM OVC039 02/M02 A3032 RMK AO2
Observed Flight Rules
Oct-23 @ 11:35 UTC (15 minutes ago) Visual Flight Rules
Wind Visibility Clouds
310° at 4 knots 10 miles
  • Overcast at 3,900' AGL
Temperatures Readings
Current 2°C / 36°F
Dewpoint -2°C / 28°F
Humidity 75%
Altimeter 30.32" Hg
Pressure 1027 hPa
Elevation 374
METAR KHZX 231135Z AUTO 31004KT 10SM OVC039 02/M02 A3032 RMK AO2
Observed Flight Rules
Oct-23 @ 11:35 UTC
(15 minutes ago)
VFR
Wind Visibility
310° at 4 knots 10 miles
Clouds
  • Overcast at 3,900' AGL
Temperature Dewpoint
2°C / 36°F -2°C / 28°F
Humidity Altimeter Pressure
75% 30.32" Hg 1027 hPa